createdAt,value
2019-05-02T00:02:35.783Z,5.40
2019-05-02T00:05:27.445Z,5.78
2019-05-02T00:08:16.839Z,6.40
2019-05-02T00:11:05.817Z,5.80
2019-05-02T00:13:55.598Z,5.90
2019-05-02T00:16:49.106Z,6.08
2019-05-02T00:19:35.822Z,5.53
2019-05-02T00:22:25.274Z,5.65
2019-05-02T00:25:15.912Z,6.35
2019-05-02T00:28:07.707Z,6.15
2019-05-02T00:30:56.929Z,7.15
2019-05-02T00:33:46.642Z,7.12
2019-05-02T00:36:36.055Z,6.80
2019-05-02T00:39:25.488Z,7.08
2019-05-02T00:42:17.572Z,7.08
2019-05-02T00:45:06.458Z,8.08
2019-05-02T00:48:12.142Z,8.20
2019-05-02T00:51:00.829Z,7.10
2019-05-02T00:53:50.270Z,8.68
2019-05-02T00:56:40.233Z,8.68
2019-05-02T00:59:30.135Z,8.65
2019-05-02T01:02:23.788Z,9.40
2019-05-02T01:05:14.112Z,8.93
2019-05-02T01:08:03.176Z,9.43
2019-05-02T01:10:56.423Z,10.58
2019-05-02T01:13:42.427Z,10.95
2019-05-02T01:16:31.764Z,11.15
2019-05-02T01:19:20.702Z,13.03
2019-05-02T01:22:10.605Z,12.10
2019-05-02T01:25:00.731Z,12.58
2019-05-02T01:27:51.756Z,13.40
2019-05-02T01:30:58.860Z,14.20
2019-05-02T01:34:01.822Z,13.48
2019-05-02T01:36:57.590Z,14.05
2019-05-02T01:39:47.019Z,13.80
2019-05-02T01:42:39.991Z,14.40
2019-05-02T01:45:27.397Z,14.55
2019-05-02T01:48:16.297Z,14.23
2019-05-02T01:51:10.429Z,14.00
2019-05-02T01:53:56.301Z,15.20
2019-05-02T01:56:46.015Z,14.85
2019-05-02T01:59:35.153Z,15.50
2019-05-02T02:02:28.067Z,16.23
2019-05-02T02:05:15.570Z,16.25
2019-05-02T02:08:05.740Z,16.07
2019-05-02T02:10:56.085Z,16.62
2019-05-02T02:13:45.620Z,16.87
2019-05-02T02:16:35.180Z,15.08
2019-05-02T02:19:27.314Z,15.90
2019-05-02T02:22:18.246Z,15.95
2019-05-02T02:25:23.586Z,14.83
2019-05-02T02:28:12.754Z,16.73
2019-05-02T02:31:04.819Z,16.90
2019-05-02T02:33:53.014Z,17.20
2019-05-02T02:36:41.892Z,18.25
2019-05-02T02:39:30.942Z,16.85
2019-05-02T02:42:24.939Z,17.20
2019-05-02T02:45:20.318Z,16.25
2019-05-02T02:48:09.514Z,16.60
2019-05-02T02:50:58.303Z,17.05
2019-05-02T02:53:47.425Z,17.37
2019-05-02T02:56:40.456Z,18.05
2019-05-02T02:59:28.263Z,19.00
2019-05-02T03:02:17.707Z,17.52
2019-05-02T03:05:07.691Z,18.35
2019-05-02T03:07:59.500Z,17.02
2019-05-02T03:10:47.413Z,18.43
2019-05-02T03:13:52.812Z,17.40
2019-05-02T03:16:45.589Z,18.73
2019-05-02T03:19:27.201Z,19.00
2019-05-02T03:22:16.417Z,20.48
2019-05-02T03:25:07.431Z,19.98
2019-05-02T03:27:56.777Z,20.13
2019-05-02T03:30:46.580Z,20.40
2019-05-02T03:33:52.680Z,22.70
2019-05-02T03:36:30.592Z,21.25
2019-05-02T03:39:17.535Z,21.25
2019-05-02T03:42:08.076Z,21.05
2019-05-02T03:45:04.043Z,21.35
2019-05-02T03:47:49.132Z,22.17
2019-05-02T03:50:38.954Z,22.07
2019-05-02T03:53:27.997Z,21.15
2019-05-02T03:56:17.320Z,22.75
2019-05-02T03:59:06.847Z,22.25
2019-05-02T04:01:56.255Z,22.20
2019-05-02T04:04:46.004Z,22.35
2019-05-02T04:07:40.554Z,23.20
2019-05-02T04:10:52.742Z,22.73
2019-05-02T04:13:40.035Z,22.32
2019-05-02T04:16:30.334Z,21.20
2019-05-02T04:19:19.843Z,21.33
2019-05-02T04:22:11.892Z,23.05
2019-05-02T04:25:01.315Z,22.45
2019-05-02T04:27:50.819Z,21.17
2019-05-02T04:30:45.148Z,21.85
2019-05-02T04:33:34.617Z,21.90
2019-05-02T04:36:20.877Z,22.22
2019-05-02T04:39:15.131Z,21.30
2019-05-02T04:42:05.384Z,20.68
2019-05-02T04:45:11.676Z,20.30
2019-05-02T04:47:42.607Z,19.17
2019-05-02T04:50:31.895Z,19.17
2019-05-02T04:53:26.077Z,19.10
2019-05-02T04:56:11.357Z,20.27
2019-05-02T04:59:01.819Z,21.12
2019-05-02T05:01:57.098Z,20.17
2019-05-02T05:04:46.057Z,20.45
2019-05-02T05:07:41.004Z,21.00
2019-05-02T05:10:22.627Z,21.30
2019-05-02T05:16:02.887Z,21.62
2019-05-02T05:18:53.256Z,20.40
2019-05-02T05:21:42.380Z,20.02
2019-05-02T05:24:42.348Z,20.45
2019-05-02T05:27:29.532Z,18.92
2019-05-02T05:30:18.874Z,19.65
2019-05-02T05:33:10.317Z,20.48
2019-05-02T05:35:58.739Z,20.50
2019-05-02T05:38:48.009Z,20.95
2019-05-02T05:52:59.290Z,18.45
2019-05-02T05:55:48.246Z,18.07
2019-05-02T05:58:40.002Z,17.77
2019-05-02T06:01:34.346Z,19.37
2019-05-02T06:04:23.373Z,18.32
2019-05-02T06:07:08.791Z,18.25
2019-05-02T06:10:02.400Z,17.62
2019-05-02T06:12:48.035Z,18.80
2019-05-02T06:15:39.054Z,19.45
2019-05-02T06:18:28.449Z,18.15
2019-05-02T06:21:18.415Z,18.00
2019-05-02T06:24:10.938Z,16.10
2019-05-02T06:26:57.611Z,15.65
2019-05-02T06:29:51.277Z,16.40
2019-05-02T06:32:37.339Z,16.65
2019-05-02T06:35:26.403Z,15.72
2019-05-02T06:38:15.719Z,15.15
2019-05-02T06:41:05.256Z,15.70
2019-05-02T06:43:54.256Z,16.12
2019-05-02T06:46:43.788Z,14.63
2019-05-02T06:49:33.171Z,15.80
2019-05-02T06:52:21.693Z,15.55
2019-05-02T06:55:11.052Z,16.05
2019-05-02T06:58:02.835Z,15.53
2019-05-02T07:00:58.377Z,15.70
2019-05-02T07:03:41.436Z,15.30
2019-05-02T07:06:42.187Z,15.13
2019-05-02T07:09:22.876Z,15.60
2019-05-02T07:12:14.741Z,14.85
2019-05-02T07:15:03.839Z,16.25
2019-05-02T07:17:55.176Z,14.30
2019-05-02T07:20:44.766Z,15.23
2019-05-02T07:23:33.930Z,14.80
2019-05-02T07:26:23.511Z,14.43
2019-05-02T07:29:17.158Z,14.38
2019-05-02T07:32:03.567Z,17.12
2019-05-02T07:34:52.691Z,16.20
2019-05-02T07:37:44.014Z,15.40
2019-05-02T07:40:32.712Z,16.97
2019-05-02T07:43:22.422Z,15.05
2019-05-02T07:46:16.264Z,16.02
2019-05-02T07:49:03.021Z,14.73
2019-05-02T07:51:57.268Z,15.32
2019-05-02T07:54:42.850Z,15.00
2019-05-02T07:57:32.411Z,14.60
2019-05-02T08:00:22.993Z,14.30
2019-05-02T08:03:11.916Z,15.05
2019-05-02T08:06:01.149Z,14.75
2019-05-02T08:08:50.072Z,14.85
2019-05-02T08:11:39.688Z,15.28
2019-05-02T08:14:34.033Z,16.50
2019-05-02T08:17:20.070Z,17.17
2019-05-02T08:20:13.549Z,16.73
2019-05-02T08:22:59.828Z,19.02
2019-05-02T08:25:49.215Z,17.65
2019-05-02T08:28:42.378Z,17.55
2019-05-02T08:31:31.863Z,16.57
2019-05-02T08:34:22.373Z,17.25
2019-05-02T08:37:11.087Z,15.93
2019-05-02T08:40:00.045Z,17.62
2019-05-02T08:42:52.577Z,17.65
2019-05-02T08:45:41.569Z,17.90
2019-05-02T08:48:30.899Z,18.95
2019-05-02T08:51:20.107Z,18.80
2019-05-02T08:54:09.489Z,18.62
2019-05-02T08:57:00.552Z,17.90
2019-05-02T08:59:50.638Z,16.07
2019-05-02T09:02:41.420Z,15.40
2019-05-02T09:05:30.348Z,15.57
2019-05-02T09:08:19.341Z,16.00
2019-05-02T09:11:07.922Z,15.55
2019-05-02T09:13:56.819Z,14.70
2019-05-02T09:16:45.409Z,14.30
2019-05-02T09:19:35.037Z,15.83
2019-05-02T09:22:24.139Z,16.48
2019-05-02T09:25:14.244Z,16.52
2019-05-02T09:28:03.005Z,16.33
2019-05-02T09:30:52.542Z,16.80
2019-05-02T09:33:46.841Z,14.30
2019-05-02T09:36:32.924Z,14.70
2019-05-02T09:39:22.770Z,12.85
2019-05-02T09:42:15.662Z,12.23
2019-05-02T09:45:04.041Z,10.73
2019-05-02T09:48:03.478Z,11.03
2019-05-02T09:50:43.566Z,12.17
2019-05-02T09:53:32.534Z,11.83
2019-05-02T09:56:22.068Z,10.32
2019-05-02T09:59:26.637Z,11.25
2019-05-02T10:02:03.103Z,11.65
2019-05-02T10:04:52.476Z,11.40
2019-05-02T10:07:41.998Z,11.38
2019-05-02T10:10:37.274Z,11.90
2019-05-02T10:13:23.408Z,11.80
2019-05-02T10:16:13.344Z,12.37
2019-05-02T10:19:09.535Z,12.10
2019-05-02T10:21:56.210Z,12.80
2019-05-02T10:24:44.242Z,11.43
2019-05-02T10:27:33.797Z,12.70
2019-05-02T10:30:25.395Z,11.68
2019-05-02T10:33:14.086Z,11.33
2019-05-02T10:36:03.358Z,12.20
2019-05-02T10:38:54.775Z,11.90
2019-05-02T10:41:43.821Z,11.70
2019-05-02T10:44:36.492Z,12.70
2019-05-02T10:47:24.729Z,12.35
2019-05-02T10:50:17.081Z,12.20
2019-05-02T10:53:12.211Z,13.78
2019-05-02T10:55:56.837Z,12.20
2019-05-02T10:58:46.372Z,14.33
2019-05-02T11:01:37.554Z,14.90
2019-05-02T11:04:29.314Z,13.78
2019-05-02T11:07:22.581Z,13.75
2019-05-02T11:10:08.672Z,14.60
2019-05-02T11:13:05.989Z,13.72
2019-05-02T11:15:54.725Z,13.60
2019-05-02T11:18:52.559Z,14.98
2019-05-02T11:21:53.487Z,14.45
2019-05-02T11:24:32.506Z,14.35
2019-05-02T11:27:22.162Z,16.30
2019-05-02T11:30:16.879Z,16.97
2019-05-02T11:33:03.755Z,15.60
2019-05-02T11:35:53.541Z,17.15
2019-05-02T11:38:45.566Z,16.73
2019-05-02T11:41:33.209Z,15.78
2019-05-02T11:44:22.677Z,15.60
2019-05-02T11:47:12.765Z,15.88
2019-05-02T11:50:02.567Z,15.18
2019-05-02T11:52:52.391Z,15.55
2019-05-02T11:55:43.466Z,16.80
2019-05-02T11:58:32.509Z,17.25
2019-05-02T12:01:35.513Z,14.47
2019-05-02T12:07:04.849Z,14.05
2019-05-02T12:12:44.076Z,13.88
2019-05-02T12:15:32.562Z,14.50
2019-05-02T12:18:23.331Z,15.00
2019-05-02T12:21:12.714Z,15.20
2019-05-02T12:24:02.458Z,16.27
2019-05-02T12:26:52.854Z,15.88
2019-05-02T12:29:42.490Z,15.15
2019-05-02T12:32:33.454Z,14.75
2019-05-02T12:35:23.300Z,13.83
2019-05-02T12:38:12.638Z,14.95
2019-05-02T12:41:02.704Z,15.32
2019-05-02T12:43:52.604Z,15.58
2019-05-02T12:46:42.296Z,16.17
2019-05-02T12:49:32.436Z,15.80
2019-05-02T12:52:22.661Z,16.95
2019-05-02T12:55:12.879Z,20.72
2019-05-02T12:58:03.221Z,18.45
2019-05-02T13:00:53.146Z,15.60
2019-05-02T13:03:47.225Z,14.75
2019-05-02T13:06:37.276Z,16.85
2019-05-02T13:09:26.870Z,16.17
2019-05-02T13:12:17.485Z,16.00
2019-05-02T13:15:08.759Z,14.58
2019-05-02T13:17:58.164Z,14.40
2019-05-02T13:20:47.601Z,13.90
2019-05-02T13:23:42.598Z,13.60
2019-05-02T13:26:32.220Z,14.65
2019-05-02T13:29:22.523Z,14.70
2019-05-02T13:32:18.582Z,15.28
2019-05-02T13:35:16.547Z,13.93
2019-05-02T13:38:05.680Z,13.03
2019-05-02T13:40:54.962Z,12.10
2019-05-02T13:43:46.343Z,11.88
2019-05-02T13:46:35.010Z,11.00
2019-05-02T13:49:24.190Z,10.55
2019-05-02T13:52:14.173Z,9.68
2019-05-02T13:55:05.503Z,9.08
2019-05-02T13:57:54.869Z,8.70
2019-05-02T14:00:47.893Z,9.33
2019-05-02T14:03:37.190Z,8.33
2019-05-02T14:06:30.275Z,8.05
2019-05-02T14:09:24.177Z,9.05
2019-05-02T14:12:27.116Z,8.40
2019-05-02T14:15:19.394Z,9.15
2019-05-02T14:18:09.958Z,9.13
2019-05-02T14:20:59.406Z,7.60
2019-05-02T14:23:48.878Z,9.18
2019-05-02T14:26:37.439Z,8.43
2019-05-02T14:29:26.747Z,7.28
2019-05-02T14:32:23.355Z,8.73
2019-05-02T14:35:12.743Z,7.97
2019-05-02T14:38:09.128Z,7.67
2019-05-02T14:41:00.101Z,7.90
2019-05-02T14:43:49.718Z,7.97
2019-05-02T14:46:39.635Z,8.00
2019-05-02T14:49:29.533Z,9.23
2019-05-02T14:52:19.055Z,7.80
2019-05-02T14:55:09.913Z,8.70
2019-05-02T14:58:02.225Z,7.50
2019-05-02T15:00:52.871Z,6.97
2019-05-02T15:03:42.304Z,7.80
2019-05-02T15:06:33.718Z,8.43
2019-05-02T15:09:26.630Z,7.83
2019-05-02T15:12:15.799Z,8.90
2019-05-02T15:15:04.531Z,8.63
2019-05-02T15:17:53.905Z,10.08
2019-05-02T15:20:42.926Z,8.80
2019-05-02T15:23:32.547Z,7.97
2019-05-02T15:26:21.159Z,9.38
2019-05-02T15:29:12.318Z,8.00
2019-05-02T15:32:18.425Z,10.90
2019-05-02T15:35:10.376Z,7.90
2019-05-02T15:38:02.764Z,7.55
2019-05-02T15:40:51.431Z,10.63
2019-05-02T15:43:44.188Z,7.65
2019-05-02T15:46:31.934Z,9.83
2019-05-02T15:49:22.202Z,10.68
2019-05-02T15:52:13.207Z,7.40
2019-05-02T15:55:04.117Z,12.50
2019-05-02T15:57:53.821Z,7.80
2019-05-02T16:00:44.599Z,7.50
2019-05-02T16:03:46.221Z,7.75
2019-05-02T16:06:34.493Z,7.03
2019-05-02T16:09:23.555Z,3.45
2019-05-02T16:12:12.348Z,2.10
2019-05-02T16:15:02.737Z,3.30
2019-05-02T16:17:56.740Z,4.08
2019-05-02T16:20:48.665Z,2.15
2019-05-02T16:23:35.842Z,2.42
2019-05-02T16:26:24.591Z,2.77
2019-05-02T16:29:19.516Z,3.95
2019-05-02T16:32:07.435Z,2.60
2019-05-02T16:35:07.266Z,3.00
2019-05-02T16:37:55.675Z,3.65
2019-05-02T16:40:42.616Z,5.25
2019-05-02T16:43:32.762Z,3.60
2019-05-02T16:46:22.472Z,3.12
2019-05-02T16:49:15.639Z,3.60
2019-05-02T16:52:07.323Z,3.30
2019-05-02T16:54:53.669Z,3.87
2019-05-02T16:57:42.945Z,2.98
2019-05-02T17:00:37.013Z,3.92
2019-05-02T17:03:26.401Z,3.45
2019-05-02T17:06:16.978Z,4.37
2019-05-02T17:09:28.706Z,7.85
2019-05-02T17:12:16.716Z,3.02
2019-05-02T17:15:26.246Z,4.55
2019-05-02T17:18:18.253Z,4.58
2019-05-02T17:21:06.579Z,3.83
2019-05-02T17:23:56.027Z,3.33
2019-05-02T17:26:45.099Z,5.95
2019-05-02T17:29:34.464Z,3.70
2019-05-02T17:32:23.384Z,4.15
2019-05-02T17:35:14.600Z,3.83
2019-05-02T17:38:04.446Z,4.90
2019-05-02T17:40:54.482Z,4.87
2019-05-02T17:43:44.455Z,4.92
2019-05-02T17:46:33.302Z,5.58
2019-05-02T17:49:23.625Z,3.85
2019-05-02T17:52:29.585Z,5.58
2019-05-02T17:55:19.286Z,6.35
2019-05-02T17:58:12.405Z,5.62
2019-05-02T18:01:02.428Z,7.92
2019-05-02T18:03:52.067Z,8.25
2019-05-02T18:06:41.720Z,7.97
2019-05-02T18:09:35.046Z,5.05
2019-05-02T18:12:23.329Z,4.73
2019-05-02T18:15:12.923Z,7.37
2019-05-02T18:18:06.449Z,5.30
2019-05-02T18:20:53.003Z,4.83
2019-05-02T18:23:42.792Z,5.60
2019-05-02T18:26:32.198Z,6.83
2019-05-02T18:29:21.787Z,9.38
2019-05-02T18:32:12.843Z,5.15
2019-05-02T18:35:06.049Z,5.75
2019-05-02T18:37:52.838Z,4.67
2019-05-02T18:40:42.685Z,4.62
2019-05-02T18:43:36.084Z,5.25
2019-05-02T18:46:23.133Z,6.10
2019-05-02T18:49:16.992Z,5.42
2019-05-02T18:52:03.240Z,5.50
2019-05-02T18:54:52.382Z,5.12
2019-05-02T18:57:42.378Z,4.90
2019-05-02T19:00:37.730Z,6.72
2019-05-02T19:03:23.352Z,8.20
2019-05-02T19:06:12.527Z,5.25
2019-05-02T19:09:05.573Z,4.65
2019-05-02T19:12:05.061Z,6.60
2019-05-02T19:14:45.355Z,5.80
2019-05-02T19:17:38.439Z,5.67
2019-05-02T19:20:30.270Z,7.45
2019-05-02T19:23:18.834Z,4.87
2019-05-02T19:26:10.715Z,5.45
2019-05-02T19:29:02.449Z,5.80
2019-05-02T19:31:52.455Z,7.53
2019-05-02T19:34:42.121Z,4.75
2019-05-02T19:37:31.646Z,6.05
2019-05-02T19:40:27.239Z,5.47
2019-05-02T19:43:14.888Z,4.90
2019-05-02T19:46:04.602Z,5.20
2019-05-02T19:48:53.913Z,4.60
2019-05-02T19:51:43.168Z,5.15
2019-05-02T19:54:39.414Z,5.28
2019-05-02T19:57:26.251Z,6.70
2019-05-02T20:00:13.020Z,7.05
2019-05-02T20:03:02.559Z,7.25
2019-05-02T20:05:56.663Z,17.37
2019-05-02T20:08:42.629Z,5.30
2019-05-02T20:11:33.016Z,4.20
2019-05-02T20:14:22.430Z,4.42
2019-05-02T20:17:14.922Z,6.20
2019-05-02T20:20:14.387Z,4.87
2019-05-02T20:23:15.204Z,4.83
2019-05-02T20:25:55.292Z,4.12
2019-05-02T20:28:44.366Z,3.02
2019-05-02T20:31:33.939Z,3.70
2019-05-02T20:34:23.099Z,2.83
2019-05-02T20:37:12.835Z,6.25
2019-05-02T20:40:02.857Z,2.77
2019-05-02T20:42:52.827Z,4.67
2019-05-02T20:45:42.775Z,4.90
2019-05-02T20:48:32.426Z,3.25
2019-05-02T20:51:22.728Z,3.95
2019-05-02T20:54:12.911Z,4.45
2019-05-02T20:57:02.517Z,3.17
2019-05-02T20:59:52.787Z,4.85
2019-05-02T21:02:42.475Z,7.60
2019-05-02T21:05:51.936Z,7.28
2019-05-02T21:08:42.480Z,3.40
2019-05-02T21:11:32.405Z,2.80
2019-05-02T21:14:22.260Z,3.90
2019-05-02T21:17:12.798Z,9.10
2019-05-02T21:20:02.633Z,2.67
2019-05-02T21:22:52.975Z,6.55
2019-05-02T21:25:42.918Z,3.85
2019-05-02T21:28:32.277Z,4.33
2019-05-02T21:31:22.492Z,3.05
2019-05-02T21:34:12.239Z,2.72
2019-05-02T21:37:02.524Z,4.67
2019-05-02T21:39:52.434Z,5.72
2019-05-02T21:42:42.521Z,4.30
2019-05-02T21:45:32.004Z,6.70
2019-05-02T21:48:21.917Z,3.95
2019-05-02T21:51:12.469Z,5.60
2019-05-02T21:54:05.995Z,4.28
2019-05-02T21:56:56.446Z,3.05
2019-05-02T21:59:46.150Z,2.87
2019-05-02T22:02:35.641Z,3.15
2019-05-02T22:05:24.976Z,3.47
2019-05-02T22:08:14.060Z,5.08
2019-05-02T22:11:02.658Z,5.08
2019-05-02T22:13:51.733Z,5.42
2019-05-02T22:16:42.082Z,3.00
2019-05-02T22:19:32.309Z,4.17
2019-05-02T22:22:22.849Z,2.83
2019-05-02T22:25:12.932Z,3.50
2019-05-02T22:28:02.116Z,3.58
2019-05-02T22:30:54.349Z,5.20
2019-05-02T22:33:44.560Z,4.35
2019-05-02T22:36:33.086Z,3.62
2019-05-02T22:39:23.673Z,3.37
2019-05-02T22:42:13.037Z,5.20
2019-05-02T22:45:04.579Z,2.90
2019-05-02T22:47:53.038Z,4.05
2019-05-02T22:50:42.300Z,4.47
2019-05-02T22:53:32.187Z,14.90
2019-05-02T22:56:22.269Z,3.52
2019-05-02T22:59:11.801Z,2.92
2019-05-02T23:02:02.118Z,4.22
2019-05-02T23:04:52.606Z,2.37
2019-05-02T23:07:42.315Z,3.00
2019-05-02T23:10:32.679Z,2.98
2019-05-02T23:13:22.004Z,3.10
2019-05-02T23:16:12.585Z,4.75
2019-05-02T23:19:02.795Z,3.20
2019-05-02T23:21:52.828Z,4.20
2019-05-02T23:24:52.844Z,4.50
2019-05-02T23:27:42.429Z,5.25
2019-05-02T23:30:31.934Z,2.92
2019-05-02T23:33:23.421Z,2.85
2019-05-02T23:36:12.548Z,4.37
2019-05-02T23:39:02.415Z,9.00
2019-05-02T23:41:52.531Z,4.20
2019-05-02T23:44:42.543Z,4.00
2019-05-02T23:47:33.033Z,3.60
2019-05-02T23:50:23.067Z,3.80
2019-05-02T23:53:12.865Z,5.62
2019-05-02T23:56:02.636Z,4.75
2019-05-02T23:58:52.063Z,3.83
